sensor_id;sensor_type;location;lat;lon;timestamp;P1;durP1;ratioP1;P2;durP2;ratioP2
5876;SDS011;2964;42.144;24.730;2022-08-21T00:02:26;19.97;;;11.70;;
5876;SDS011;2964;42.144;24.730;2022-08-21T00:04:54;16.63;;;11.90;;
5876;SDS011;2964;42.144;24.730;2022-08-21T00:07:22;14.13;;;11.27;;
5876;SDS011;2964;42.144;24.730;2022-08-21T00:09:49;20.27;;;11.00;;
5876;SDS011;2964;42.144;24.730;2022-08-21T00:12:15;14.63;;;10.43;;
5876;SDS011;2964;42.144;24.730;2022-08-21T00:14:42;15.43;;;10.97;;
5876;SDS011;2964;42.144;24.730;2022-08-21T00:17:09;15.50;;;10.27;;
5876;SDS011;2964;42.144;24.730;2022-08-21T00:19:36;12.27;;;9.73;;
5876;SDS011;2964;42.144;24.730;2022-08-21T00:22:03;15.13;;;10.70;;
5876;SDS011;2964;42.144;24.730;2022-08-21T00:24:31;14.60;;;10.70;;
5876;SDS011;2964;42.144;24.730;2022-08-21T00:26:58;14.83;;;10.40;;
5876;SDS011;2964;42.144;24.730;2022-08-21T00:29:25;12.67;;;10.77;;
5876;SDS011;2964;42.144;24.730;2022-08-21T00:31:52;12.70;;;10.10;;
5876;SDS011;2964;42.144;24.730;2022-08-21T00:34:19;17.43;;;10.60;;
5876;SDS011;2964;42.144;24.730;2022-08-21T00:36:45;14.80;;;10.60;;
5876;SDS011;2964;42.144;24.730;2022-08-21T00:39:12;18.03;;;11.73;;
5876;SDS011;2964;42.144;24.730;2022-08-21T00:41:41;15.60;;;12.30;;
5876;SDS011;2964;42.144;24.730;2022-08-21T00:44:10;24.27;;;12.87;;
5876;SDS011;2964;42.144;24.730;2022-08-21T00:46:39;16.73;;;11.80;;
5876;SDS011;2964;42.144;24.730;2022-08-21T00:49:07;13.20;;;10.63;;
5876;SDS011;2964;42.144;24.730;2022-08-21T00:51:36;11.43;;;9.00;;
5876;SDS011;2964;42.144;24.730;2022-08-21T00:54:05;15.33;;;10.57;;
5876;SDS011;2964;42.144;24.730;2022-08-21T00:56:33;13.30;;;10.83;;
5876;SDS011;2964;42.144;24.730;2022-08-21T00:59:03;20.70;;;12.70;;
5876;SDS011;2964;42.144;24.730;2022-08-21T01:01:31;16.23;;;11.23;;
5876;SDS011;2964;42.144;24.730;2022-08-21T01:03:58;15.80;;;10.63;;
5876;SDS011;2964;42.144;24.730;2022-08-21T01:06:25;12.57;;;9.97;;
5876;SDS011;2964;42.144;24.730;2022-08-21T01:08:52;12.97;;;9.30;;
5876;SDS011;2964;42.144;24.730;2022-08-21T01:11:19;15.73;;;10.57;;
5876;SDS011;2964;42.144;24.730;2022-08-21T01:13:46;12.53;;;9.27;;
5876;SDS011;2964;42.144;24.730;2022-08-21T01:16:17;15.33;;;9.73;;
5876;SDS011;2964;42.144;24.730;2022-08-21T01:18:47;16.10;;;9.40;;
5876;SDS011;2964;42.144;24.730;2022-08-21T01:21:17;18.30;;;9.43;;
5876;SDS011;2964;42.144;24.730;2022-08-21T01:23:46;11.30;;;9.27;;
5876;SDS011;2964;42.144;24.730;2022-08-21T01:26:16;10.93;;;8.03;;
5876;SDS011;2964;42.144;24.730;2022-08-21T01:28:46;13.87;;;9.37;;
5876;SDS011;2964;42.144;24.730;2022-08-21T01:31:19;15.77;;;9.77;;
5876;SDS011;2964;42.144;24.730;2022-08-21T01:33:49;16.37;;;9.67;;
5876;SDS011;2964;42.144;24.730;2022-08-21T01:36:17;13.70;;;9.50;;
5876;SDS011;2964;42.144;24.730;2022-08-21T01:38:44;14.00;;;8.93;;
5876;SDS011;2964;42.144;24.730;2022-08-21T01:41:12;16.47;;;9.83;;
5876;SDS011;2964;42.144;24.730;2022-08-21T01:43:39;15.53;;;10.03;;
5876;SDS011;2964;42.144;24.730;2022-08-21T01:46:06;12.60;;;9.87;;
5876;SDS011;2964;42.144;24.730;2022-08-21T01:48:32;12.83;;;10.50;;
5876;SDS011;2964;42.144;24.730;2022-08-21T01:50:59;18.57;;;11.23;;
5876;SDS011;2964;42.144;24.730;2022-08-21T01:53:27;18.63;;;11.27;;
5876;SDS011;2964;42.144;24.730;2022-08-21T01:55:54;18.70;;;11.30;;
5876;SDS011;2964;42.144;24.730;2022-08-21T01:58:21;17.43;;;11.37;;
5876;SDS011;2964;42.144;24.730;2022-08-21T02:00:48;15.17;;;11.93;;
5876;SDS011;2964;42.144;24.730;2022-08-21T02:03:15;20.07;;;12.80;;
5876;SDS011;2964;42.144;24.730;2022-08-21T02:05:42;14.03;;;12.60;;
5876;SDS011;2964;42.144;24.730;2022-08-21T02:08:08;18.53;;;12.93;;
5876;SDS011;2964;42.144;24.730;2022-08-21T02:10:36;18.97;;;13.13;;
5876;SDS011;2964;42.144;24.730;2022-08-21T02:13:03;19.00;;;12.57;;
5876;SDS011;2964;42.144;24.730;2022-08-21T02:15:32;15.90;;;12.00;;
5876;SDS011;2964;42.144;24.730;2022-08-21T02:18:00;12.73;;;11.13;;
5876;SDS011;2964;42.144;24.730;2022-08-21T02:20:29;14.57;;;11.27;;
5876;SDS011;2964;42.144;24.730;2022-08-21T02:23:02;14.77;;;11.67;;
5876;SDS011;2964;42.144;24.730;2022-08-21T02:25:29;19.73;;;12.23;;
5876;SDS011;2964;42.144;24.730;2022-08-21T02:27:59;12.97;;;11.67;;
5876;SDS011;2964;42.144;24.730;2022-08-21T02:30:30;12.80;;;11.63;;
5876;SDS011;2964;42.144;24.730;2022-08-21T02:32:58;16.03;;;13.73;;
5876;SDS011;2964;42.144;24.730;2022-08-21T02:35:26;16.17;;;13.47;;
5876;SDS011;2964;42.144;24.730;2022-08-21T02:37:55;18.60;;;14.30;;
5876;SDS011;2964;42.144;24.730;2022-08-21T02:40:24;23.53;;;15.33;;
5876;SDS011;2964;42.144;24.730;2022-08-21T02:42:53;19.90;;;15.60;;
5876;SDS011;2964;42.144;24.730;2022-08-21T02:45:21;19.00;;;15.13;;
5876;SDS011;2964;42.144;24.730;2022-08-21T02:47:48;21.23;;;16.07;;
5876;SDS011;2964;42.144;24.730;2022-08-21T02:50:17;17.23;;;15.40;;
5876;SDS011;2964;42.144;24.730;2022-08-21T02:52:46;21.67;;;16.40;;
5876;SDS011;2964;42.144;24.730;2022-08-21T02:55:13;16.57;;;14.40;;
5876;SDS011;2964;42.144;24.730;2022-08-21T02:57:40;18.00;;;13.43;;
5876;SDS011;2964;42.144;24.730;2022-08-21T03:00:07;16.50;;;13.87;;
5876;SDS011;2964;42.144;24.730;2022-08-21T03:02:37;18.07;;;13.73;;
5876;SDS011;2964;42.144;24.730;2022-08-21T03:05:04;15.63;;;12.90;;
5876;SDS011;2964;42.144;24.730;2022-08-21T03:07:31;15.17;;;13.30;;
5876;SDS011;2964;42.144;24.730;2022-08-21T03:09:58;15.13;;;13.53;;
5876;SDS011;2964;42.144;24.730;2022-08-21T03:12:25;24.37;;;13.57;;
5876;SDS011;2964;42.144;24.730;2022-08-21T03:14:52;23.33;;;12.57;;
5876;SDS011;2964;42.144;24.730;2022-08-21T03:17:19;15.67;;;12.77;;
5876;SDS011;2964;42.144;24.730;2022-08-21T03:19:47;14.47;;;12.50;;
5876;SDS011;2964;42.144;24.730;2022-08-21T03:22:13;22.20;;;13.57;;
5876;SDS011;2964;42.144;24.730;2022-08-21T03:24:40;18.73;;;14.77;;
5876;SDS011;2964;42.144;24.730;2022-08-21T03:27:07;17.83;;;14.20;;
5876;SDS011;2964;42.144;24.730;2022-08-21T03:29:34;16.47;;;13.73;;
5876;SDS011;2964;42.144;24.730;2022-08-21T03:32:01;17.73;;;14.63;;
5876;SDS011;2964;42.144;24.730;2022-08-21T03:34:28;21.97;;;14.53;;
5876;SDS011;2964;42.144;24.730;2022-08-21T03:36:56;21.03;;;15.07;;
5876;SDS011;2964;42.144;24.730;2022-08-21T03:39:22;22.67;;;15.53;;
5876;SDS011;2964;42.144;24.730;2022-08-21T03:41:49;20.53;;;15.03;;
5876;SDS011;2964;42.144;24.730;2022-08-21T03:44:17;22.00;;;16.27;;
5876;SDS011;2964;42.144;24.730;2022-08-21T03:46:44;17.30;;;15.40;;
5876;SDS011;2964;42.144;24.730;2022-08-21T03:49:10;21.70;;;16.20;;
5876;SDS011;2964;42.144;24.730;2022-08-21T03:51:38;19.53;;;15.03;;
5876;SDS011;2964;42.144;24.730;2022-08-21T03:54:06;22.17;;;15.30;;
5876;SDS011;2964;42.144;24.730;2022-08-21T03:56:33;20.63;;;16.50;;
5876;SDS011;2964;42.144;24.730;2022-08-21T03:58:59;24.40;;;16.73;;
5876;SDS011;2964;42.144;24.730;2022-08-21T04:01:27;18.07;;;14.33;;
5876;SDS011;2964;42.144;24.730;2022-08-21T04:03:53;23.60;;;16.53;;
5876;SDS011;2964;42.144;24.730;2022-08-21T04:06:20;20.37;;;15.33;;
5876;SDS011;2964;42.144;24.730;2022-08-21T04:08:47;35.20;;;17.37;;
5876;SDS011;2964;42.144;24.730;2022-08-21T04:11:15;30.03;;;17.37;;
5876;SDS011;2964;42.144;24.730;2022-08-21T04:13:42;29.07;;;18.70;;
5876;SDS011;2964;42.144;24.730;2022-08-21T04:16:08;27.20;;;18.07;;
5876;SDS011;2964;42.144;24.730;2022-08-21T04:18:35;31.83;;;18.60;;
5876;SDS011;2964;42.144;24.730;2022-08-21T04:21:02;20.70;;;16.30;;
5876;SDS011;2964;42.144;24.730;2022-08-21T04:23:30;32.17;;;19.83;;
5876;SDS011;2964;42.144;24.730;2022-08-21T04:25:56;30.20;;;17.70;;
5876;SDS011;2964;42.144;24.730;2022-08-21T04:28:26;28.60;;;18.03;;
5876;SDS011;2964;42.144;24.730;2022-08-21T04:30:53;24.23;;;17.10;;
5876;SDS011;2964;42.144;24.730;2022-08-21T04:33:21;24.97;;;16.33;;
5876;SDS011;2964;42.144;24.730;2022-08-21T04:35:49;18.60;;;15.30;;
5876;SDS011;2964;42.144;24.730;2022-08-21T04:38:16;19.77;;;15.20;;
5876;SDS011;2964;42.144;24.730;2022-08-21T04:40:43;17.40;;;13.73;;
5876;SDS011;2964;42.144;24.730;2022-08-21T04:43:10;21.43;;;14.50;;
5876;SDS011;2964;42.144;24.730;2022-08-21T04:45:40;19.10;;;15.10;;
5876;SDS011;2964;42.144;24.730;2022-08-21T04:48:08;18.70;;;15.23;;
5876;SDS011;2964;42.144;24.730;2022-08-21T04:50:39;20.10;;;14.23;;
5876;SDS011;2964;42.144;24.730;2022-08-21T04:53:13;16.53;;;12.87;;
5876;SDS011;2964;42.144;24.730;2022-08-21T04:55:42;25.70;;;13.80;;
5876;SDS011;2964;42.144;24.730;2022-08-21T04:58:10;17.37;;;14.67;;
5876;SDS011;2964;42.144;24.730;2022-08-21T05:00:40;17.03;;;14.03;;
5876;SDS011;2964;42.144;24.730;2022-08-21T05:03:07;18.63;;;16.37;;
5876;SDS011;2964;42.144;24.730;2022-08-21T05:05:35;21.70;;;16.07;;
5876;SDS011;2964;42.144;24.730;2022-08-21T05:08:03;17.43;;;15.63;;
5876;SDS011;2964;42.144;24.730;2022-08-21T05:10:30;20.03;;;14.50;;
5876;SDS011;2964;42.144;24.730;2022-08-21T05:12:57;18.87;;;15.10;;
5876;SDS011;2964;42.144;24.730;2022-08-21T05:15:26;19.57;;;15.13;;
5876;SDS011;2964;42.144;24.730;2022-08-21T05:17:54;19.17;;;16.43;;
5876;SDS011;2964;42.144;24.730;2022-08-21T05:20:21;20.87;;;16.00;;
5876;SDS011;2964;42.144;24.730;2022-08-21T05:22:47;20.40;;;15.67;;
5876;SDS011;2964;42.144;24.730;2022-08-21T05:25:15;20.40;;;16.10;;
5876;SDS011;2964;42.144;24.730;2022-08-21T05:27:42;25.93;;;17.30;;
5876;SDS011;2964;42.144;24.730;2022-08-21T05:30:10;23.43;;;16.70;;
5876;SDS011;2964;42.144;24.730;2022-08-21T05:32:48;17.83;;;13.90;;
5876;SDS011;2964;42.144;24.730;2022-08-21T05:35:16;19.60;;;14.90;;
5876;SDS011;2964;42.144;24.730;2022-08-21T05:37:43;22.33;;;14.97;;
5876;SDS011;2964;42.144;24.730;2022-08-21T05:40:11;20.57;;;17.37;;
5876;SDS011;2964;42.144;24.730;2022-08-21T05:42:39;20.27;;;17.20;;
5876;SDS011;2964;42.144;24.730;2022-08-21T05:45:06;22.93;;;17.53;;
5876;SDS011;2964;42.144;24.730;2022-08-21T05:47:33;24.73;;;17.63;;
5876;SDS011;2964;42.144;24.730;2022-08-21T05:50:00;20.90;;;16.03;;
5876;SDS011;2964;42.144;24.730;2022-08-21T05:52:28;21.00;;;15.27;;
5876;SDS011;2964;42.144;24.730;2022-08-21T05:58:05;16.30;;;13.77;;
5876;SDS011;2964;42.144;24.730;2022-08-21T06:00:32;20.23;;;13.67;;
5876;SDS011;2964;42.144;24.730;2022-08-21T06:02:59;15.90;;;14.17;;
5876;SDS011;2964;42.144;24.730;2022-08-21T06:05:26;18.73;;;14.50;;
5876;SDS011;2964;42.144;24.730;2022-08-21T06:07:54;19.03;;;13.77;;
5876;SDS011;2964;42.144;24.730;2022-08-21T06:10:21;22.87;;;14.93;;
5876;SDS011;2964;42.144;24.730;2022-08-21T06:12:52;15.70;;;14.10;;
5876;SDS011;2964;42.144;24.730;2022-08-21T06:15:19;19.73;;;13.87;;
5876;SDS011;2964;42.144;24.730;2022-08-21T06:17:46;24.50;;;15.13;;
5876;SDS011;2964;42.144;24.730;2022-08-21T06:20:13;17.87;;;16.17;;
5876;SDS011;2964;42.144;24.730;2022-08-21T06:22:40;23.17;;;16.77;;
5876;SDS011;2964;42.144;24.730;2022-08-21T06:25:08;25.00;;;16.30;;
5876;SDS011;2964;42.144;24.730;2022-08-21T06:27:35;17.80;;;15.53;;
5876;SDS011;2964;42.144;24.730;2022-08-21T06:30:02;25.70;;;15.07;;
5876;SDS011;2964;42.144;24.730;2022-08-21T06:32:30;18.40;;;13.80;;
5876;SDS011;2964;42.144;24.730;2022-08-21T06:34:56;21.07;;;14.13;;
5876;SDS011;2964;42.144;24.730;2022-08-21T06:37:23;24.33;;;13.07;;
5876;SDS011;2964;42.144;24.730;2022-08-21T06:39:50;13.57;;;12.23;;
5876;SDS011;2964;42.144;24.730;2022-08-21T06:42:18;18.23;;;13.10;;
5876;SDS011;2964;42.144;24.730;2022-08-21T06:44:45;18.47;;;12.67;;
5876;SDS011;2964;42.144;24.730;2022-08-21T06:47:12;15.73;;;13.10;;
5876;SDS011;2964;42.144;24.730;2022-08-21T06:49:39;14.90;;;12.93;;
5876;SDS011;2964;42.144;24.730;2022-08-21T06:52:08;18.07;;;13.23;;
5876;SDS011;2964;42.144;24.730;2022-08-21T06:54:36;16.00;;;12.73;;
5876;SDS011;2964;42.144;24.730;2022-08-21T06:57:03;17.27;;;11.53;;
5876;SDS011;2964;42.144;24.730;2022-08-21T06:59:32;13.63;;;12.13;;
5876;SDS011;2964;42.144;24.730;2022-08-21T07:01:59;19.73;;;15.07;;
5876;SDS011;2964;42.144;24.730;2022-08-21T07:04:26;16.63;;;14.57;;
5876;SDS011;2964;42.144;24.730;2022-08-21T07:06:53;13.17;;;11.77;;
5876;SDS011;2964;42.144;24.730;2022-08-21T07:09:23;15.47;;;11.40;;
5876;SDS011;2964;42.144;24.730;2022-08-21T07:11:51;14.27;;;11.23;;
5876;SDS011;2964;42.144;24.730;2022-08-21T07:14:20;17.80;;;12.47;;
5876;SDS011;2964;42.144;24.730;2022-08-21T07:16:49;23.37;;;14.30;;
5876;SDS011;2964;42.144;24.730;2022-08-21T07:19:17;14.90;;;13.40;;
5876;SDS011;2964;42.144;24.730;2022-08-21T07:21:47;17.70;;;11.67;;
5876;SDS011;2964;42.144;24.730;2022-08-21T07:24:16;17.33;;;12.13;;
5876;SDS011;2964;42.144;24.730;2022-08-21T07:26:46;15.57;;;14.07;;
5876;SDS011;2964;42.144;24.730;2022-08-21T07:29:16;16.40;;;13.13;;
5876;SDS011;2964;42.144;24.730;2022-08-21T07:35:08;15.93;;;12.37;;
5876;SDS011;2964;42.144;24.730;2022-08-21T07:37:35;21.77;;;17.83;;
5876;SDS011;2964;42.144;24.730;2022-08-21T07:40:06;13.40;;;12.03;;
5876;SDS011;2964;42.144;24.730;2022-08-21T07:42:39;20.33;;;13.80;;
5876;SDS011;2964;42.144;24.730;2022-08-21T07:45:07;24.30;;;17.47;;
5876;SDS011;2964;42.144;24.730;2022-08-21T07:47:34;20.03;;;16.57;;
5876;SDS011;2964;42.144;24.730;2022-08-21T07:50:01;21.27;;;14.10;;
5876;SDS011;2964;42.144;24.730;2022-08-21T07:52:29;22.30;;;16.70;;
5876;SDS011;2964;42.144;24.730;2022-08-21T07:54:57;20.20;;;12.83;;
5876;SDS011;2964;42.144;24.730;2022-08-21T07:57:24;22.03;;;16.10;;
5876;SDS011;2964;42.144;24.730;2022-08-21T07:59:51;18.87;;;13.07;;
5876;SDS011;2964;42.144;24.730;2022-08-21T08:02:21;15.67;;;13.87;;
5876;SDS011;2964;42.144;24.730;2022-08-21T08:04:49;16.83;;;11.87;;
5876;SDS011;2964;42.144;24.730;2022-08-21T08:07:16;13.83;;;11.63;;
5876;SDS011;2964;42.144;24.730;2022-08-21T08:09:44;12.70;;;11.43;;
5876;SDS011;2964;42.144;24.730;2022-08-21T08:12:11;15.97;;;11.87;;
5876;SDS011;2964;42.144;24.730;2022-08-21T08:14:38;15.87;;;11.40;;
5876;SDS011;2964;42.144;24.730;2022-08-21T08:17:05;11.57;;;10.43;;
5876;SDS011;2964;42.144;24.730;2022-08-21T08:19:32;15.00;;;11.88;;
5876;SDS011;2964;42.144;24.730;2022-08-21T08:21:59;13.85;;;12.45;;
5876;SDS011;2964;42.144;24.730;2022-08-21T08:24:26;20.85;;;15.02;;
5876;SDS011;2964;42.144;24.730;2022-08-21T08:26:54;16.45;;;13.77;;
5876;SDS011;2964;42.144;24.730;2022-08-21T08:29:22;14.95;;;12.60;;
5876;SDS011;2964;42.144;24.730;2022-08-21T08:31:49;13.40;;;12.03;;
5876;SDS011;2964;42.144;24.730;2022-08-21T08:34:17;16.23;;;11.60;;
5876;SDS011;2964;42.144;24.730;2022-08-21T08:36:44;18.03;;;11.60;;
5876;SDS011;2964;42.144;24.730;2022-08-21T08:39:12;18.85;;;12.55;;
5876;SDS011;2964;42.144;24.730;2022-08-21T08:41:39;18.60;;;14.70;;
5876;SDS011;2964;42.144;24.730;2022-08-21T08:44:10;18.77;;;14.67;;
5876;SDS011;2964;42.144;24.730;2022-08-21T08:46:41;16.20;;;13.43;;
5876;SDS011;2964;42.144;24.730;2022-08-21T08:49:11;24.20;;;16.05;;
5876;SDS011;2964;42.144;24.730;2022-08-21T08:51:43;19.70;;;14.00;;
5876;SDS011;2964;42.144;24.730;2022-08-21T08:54:17;16.95;;;12.15;;
5876;SDS011;2964;42.144;24.730;2022-08-21T08:56:49;12.47;;;10.67;;
5876;SDS011;2964;42.144;24.730;2022-08-21T08:59:19;13.98;;;12.57;;
5876;SDS011;2964;42.144;24.730;2022-08-21T09:01:49;15.53;;;10.53;;
5876;SDS011;2964;42.144;24.730;2022-08-21T09:04:17;13.50;;;10.23;;
5876;SDS011;2964;42.144;24.730;2022-08-21T09:07:01;10.57;;;9.68;;
5876;SDS011;2964;42.144;24.730;2022-08-21T09:09:41;11.77;;;10.57;;
5876;SDS011;2964;42.144;24.730;2022-08-21T09:12:20;10.73;;;9.68;;
5876;SDS011;2964;42.144;24.730;2022-08-21T09:15:01;15.50;;;9.43;;
5876;SDS011;2964;42.144;24.730;2022-08-21T09:17:43;15.82;;;10.77;;
5876;SDS011;2964;42.144;24.730;2022-08-21T09:20:33;11.00;;;10.03;;
5876;SDS011;2964;42.144;24.730;2022-08-21T09:23:07;12.50;;;10.52;;
5876;SDS011;2964;42.144;24.730;2022-08-21T09:25:46;11.02;;;9.93;;
5876;SDS011;2964;42.144;24.730;2022-08-21T09:28:21;10.07;;;9.03;;
5876;SDS011;2964;42.144;24.730;2022-08-21T09:30:49;17.17;;;9.97;;
5876;SDS011;2964;42.144;24.730;2022-08-21T09:33:20;14.43;;;10.02;;
5876;SDS011;2964;42.144;24.730;2022-08-21T09:35:50;12.73;;;9.68;;
5876;SDS011;2964;42.144;24.730;2022-08-21T09:38:24;10.77;;;9.75;;
5876;SDS011;2964;42.144;24.730;2022-08-21T09:40:56;11.95;;;10.50;;
5876;SDS011;2964;42.144;24.730;2022-08-21T09:43:25;10.63;;;9.50;;
5876;SDS011;2964;42.144;24.730;2022-08-21T09:46:02;13.25;;;10.23;;
5876;SDS011;2964;42.144;24.730;2022-08-21T09:48:38;14.90;;;10.88;;
5876;SDS011;2964;42.144;24.730;2022-08-21T09:51:11;14.05;;;12.13;;
5876;SDS011;2964;42.144;24.730;2022-08-21T09:53:42;12.82;;;11.25;;
5876;SDS011;2964;42.144;24.730;2022-08-21T09:56:19;16.23;;;11.88;;
5876;SDS011;2964;42.144;24.730;2022-08-21T09:59:13;14.57;;;12.90;;
5876;SDS011;2964;42.144;24.730;2022-08-21T10:01:44;15.23;;;12.80;;
5876;SDS011;2964;42.144;24.730;2022-08-21T10:04:13;21.23;;;14.25;;
5876;SDS011;2964;42.144;24.730;2022-08-21T10:06:40;16.45;;;13.80;;
5876;SDS011;2964;42.144;24.730;2022-08-21T10:09:10;22.73;;;15.23;;
5876;SDS011;2964;42.144;24.730;2022-08-21T10:11:38;17.63;;;13.55;;
5876;SDS011;2964;42.144;24.730;2022-08-21T10:14:08;15.75;;;13.93;;
5876;SDS011;2964;42.144;24.730;2022-08-21T10:16:46;15.35;;;13.13;;
5876;SDS011;2964;42.144;24.730;2022-08-21T10:19:23;14.50;;;12.95;;
5876;SDS011;2964;42.144;24.730;2022-08-21T10:21:59;15.18;;;12.60;;
5876;SDS011;2964;42.144;24.730;2022-08-21T10:24:33;27.48;;;14.18;;
5876;SDS011;2964;42.144;24.730;2022-08-21T10:27:15;20.25;;;13.80;;
5876;SDS011;2964;42.144;24.730;2022-08-21T10:29:53;18.95;;;11.48;;
5876;SDS011;2964;42.144;24.730;2022-08-21T10:32:32;16.58;;;11.88;;
5876;SDS011;2964;42.144;24.730;2022-08-21T10:35:09;15.52;;;12.85;;
5876;SDS011;2964;42.144;24.730;2022-08-21T10:37:46;22.27;;;13.57;;
5876;SDS011;2964;42.144;24.730;2022-08-21T10:40:24;16.80;;;11.50;;
5876;SDS011;2964;42.144;24.730;2022-08-21T10:42:57;20.23;;;14.77;;
5876;SDS011;2964;42.144;24.730;2022-08-21T10:45:36;18.45;;;13.77;;
5876;SDS011;2964;42.144;24.730;2022-08-21T10:48:15;18.98;;;12.65;;
5876;SDS011;2964;42.144;24.730;2022-08-21T10:50:50;18.95;;;13.70;;
5876;SDS011;2964;42.144;24.730;2022-08-21T10:53:31;22.83;;;13.80;;
5876;SDS011;2964;42.144;24.730;2022-08-21T10:56:09;17.50;;;14.65;;
5876;SDS011;2964;42.144;24.730;2022-08-21T10:58:44;18.88;;;15.15;;
5876;SDS011;2964;42.144;24.730;2022-08-21T11:01:17;19.17;;;14.23;;
5876;SDS011;2964;42.144;24.730;2022-08-21T11:03:51;15.85;;;14.10;;
5876;SDS011;2964;42.144;24.730;2022-08-21T11:06:25;19.33;;;14.82;;
5876;SDS011;2964;42.144;24.730;2022-08-21T11:08:57;17.88;;;14.65;;
5876;SDS011;2964;42.144;24.730;2022-08-21T11:11:31;23.63;;;15.90;;
5876;SDS011;2964;42.144;24.730;2022-08-21T11:14:04;22.05;;;15.30;;
5876;SDS011;2964;42.144;24.730;2022-08-21T11:16:39;17.23;;;15.38;;
5876;SDS011;2964;42.144;24.730;2022-08-21T11:19:11;22.35;;;16.15;;
5876;SDS011;2964;42.144;24.730;2022-08-21T11:21:42;16.02;;;14.32;;
5876;SDS011;2964;42.144;24.730;2022-08-21T11:24:16;15.68;;;14.07;;
5876;SDS011;2964;42.144;24.730;2022-08-21T11:26:51;17.13;;;13.18;;
5876;SDS011;2964;42.144;24.730;2022-08-21T11:29:26;19.02;;;13.43;;
5876;SDS011;2964;42.144;24.730;2022-08-21T11:32:01;20.15;;;14.40;;
5876;SDS011;2964;42.144;24.730;2022-08-21T11:34:47;20.50;;;14.02;;
5876;SDS011;2964;42.144;24.730;2022-08-21T11:37:37;17.85;;;13.35;;
5876;SDS011;2964;42.144;24.730;2022-08-21T11:40:18;17.80;;;12.63;;
5876;SDS011;2964;42.144;24.730;2022-08-21T11:42:55;15.35;;;13.13;;
5876;SDS011;2964;42.144;24.730;2022-08-21T11:45:37;16.48;;;14.93;;
5876;SDS011;2964;42.144;24.730;2022-08-21T11:48:12;13.13;;;11.52;;
5876;SDS011;2964;42.144;24.730;2022-08-21T11:50:48;18.10;;;13.57;;
5876;SDS011;2964;42.144;24.730;2022-08-21T11:53:18;15.48;;;13.20;;
5876;SDS011;2964;42.144;24.730;2022-08-21T11:55:52;15.18;;;13.75;;
5876;SDS011;2964;42.144;24.730;2022-08-21T11:58:24;15.68;;;13.15;;
5876;SDS011;2964;42.144;24.730;2022-08-21T12:00:56;15.88;;;14.10;;
5876;SDS011;2964;42.144;24.730;2022-08-21T12:03:27;16.73;;;13.02;;
5876;SDS011;2964;42.144;24.730;2022-08-21T12:06:00;20.00;;;13.98;;
5876;SDS011;2964;42.144;24.730;2022-08-21T12:08:30;14.40;;;12.90;;
5876;SDS011;2964;42.144;24.730;2022-08-21T12:11:00;18.67;;;14.35;;
5876;SDS011;2964;42.144;24.730;2022-08-21T12:13:31;15.73;;;13.52;;
5876;SDS011;2964;42.144;24.730;2022-08-21T12:16:06;14.32;;;12.85;;
5876;SDS011;2964;42.144;24.730;2022-08-21T12:18:34;21.88;;;13.65;;
5876;SDS011;2964;42.144;24.730;2022-08-21T12:21:15;14.80;;;13.27;;
5876;SDS011;2964;42.144;24.730;2022-08-21T12:23:47;16.17;;;12.93;;
5876;SDS011;2964;42.144;24.730;2022-08-21T12:26:21;20.70;;;14.38;;
5876;SDS011;2964;42.144;24.730;2022-08-21T12:28:51;20.17;;;13.48;;
5876;SDS011;2964;42.144;24.730;2022-08-21T12:31:28;15.95;;;12.45;;
5876;SDS011;2964;42.144;24.730;2022-08-21T12:33:56;18.65;;;13.63;;
5876;SDS011;2964;42.144;24.730;2022-08-21T12:36:29;17.27;;;12.77;;
5876;SDS011;2964;42.144;24.730;2022-08-21T12:39:05;25.73;;;13.63;;
5876;SDS011;2964;42.144;24.730;2022-08-21T12:41:46;15.27;;;13.68;;
5876;SDS011;2964;42.144;24.730;2022-08-21T12:44:17;17.05;;;13.43;;
5876;SDS011;2964;42.144;24.730;2022-08-21T12:46:54;16.23;;;13.57;;
5876;SDS011;2964;42.144;24.730;2022-08-21T12:49:26;16.02;;;12.57;;
5876;SDS011;2964;42.144;24.730;2022-08-21T12:52:00;15.25;;;13.73;;
5876;SDS011;2964;42.144;24.730;2022-08-21T12:54:32;20.58;;;14.35;;
5876;SDS011;2964;42.144;24.730;2022-08-21T12:57:05;15.68;;;13.20;;
5876;SDS011;2964;42.144;24.730;2022-08-21T12:59:36;16.15;;;12.43;;
5876;SDS011;2964;42.144;24.730;2022-08-21T13:02:07;13.13;;;11.43;;
5876;SDS011;2964;42.144;24.730;2022-08-21T13:04:41;14.02;;;10.73;;
5876;SDS011;2964;42.144;24.730;2022-08-21T13:07:11;16.67;;;10.82;;
5876;SDS011;2964;42.144;24.730;2022-08-21T13:09:43;15.80;;;12.75;;
5876;SDS011;2964;42.144;24.730;2022-08-21T13:12:13;11.95;;;11.05;;
5876;SDS011;2964;42.144;24.730;2022-08-21T13:14:43;10.38;;;9.48;;
5876;SDS011;2964;42.144;24.730;2022-08-21T13:17:13;11.50;;;9.68;;
5876;SDS011;2964;42.144;24.730;2022-08-21T13:19:51;13.77;;;10.07;;
5876;SDS011;2964;42.144;24.730;2022-08-21T13:22:20;11.57;;;10.48;;
5876;SDS011;2964;42.144;24.730;2022-08-21T13:24:47;10.35;;;9.60;;
5876;SDS011;2964;42.144;24.730;2022-08-21T13:27:18;11.55;;;10.30;;
5876;SDS011;2964;42.144;24.730;2022-08-21T13:29:47;11.32;;;9.88;;
5876;SDS011;2964;42.144;24.730;2022-08-21T13:32:18;12.00;;;10.45;;
5876;SDS011;2964;42.144;24.730;2022-08-21T13:34:52;13.00;;;10.52;;
5876;SDS011;2964;42.144;24.730;2022-08-21T13:37:20;11.02;;;10.02;;
5876;SDS011;2964;42.144;24.730;2022-08-21T13:39:49;16.85;;;10.77;;
5876;SDS011;2964;42.144;24.730;2022-08-21T13:42:18;10.38;;;9.38;;
5876;SDS011;2964;42.144;24.730;2022-08-21T13:44:46;10.38;;;9.40;;
5876;SDS011;2964;42.144;24.730;2022-08-21T13:47:14;11.88;;;10.48;;
5876;SDS011;2964;42.144;24.730;2022-08-21T13:49:43;11.45;;;10.27;;
5876;SDS011;2964;42.144;24.730;2022-08-21T13:52:17;12.65;;;9.90;;
5876;SDS011;2964;42.144;24.730;2022-08-21T13:54:53;10.85;;;9.75;;
5876;SDS011;2964;42.144;24.730;2022-08-21T13:57:25;10.63;;;9.85;;
5876;SDS011;2964;42.144;24.730;2022-08-21T13:59:53;12.88;;;9.75;;
5876;SDS011;2964;42.144;24.730;2022-08-21T14:02:37;13.65;;;9.88;;
5876;SDS011;2964;42.144;24.730;2022-08-21T14:05:06;9.10;;;7.95;;
5876;SDS011;2964;42.144;24.730;2022-08-21T14:07:41;10.48;;;8.90;;
5876;SDS011;2964;42.144;24.730;2022-08-21T14:10:13;10.20;;;8.90;;
5876;SDS011;2964;42.144;24.730;2022-08-21T14:12:43;9.50;;;7.95;;
5876;SDS011;2964;42.144;24.730;2022-08-21T14:15:13;8.68;;;7.95;;
5876;SDS011;2964;42.144;24.730;2022-08-21T14:17:41;7.97;;;7.18;;
5876;SDS011;2964;42.144;24.730;2022-08-21T14:20:11;9.98;;;9.07;;
5876;SDS011;2964;42.144;24.730;2022-08-21T14:22:52;9.73;;;8.82;;
5876;SDS011;2964;42.144;24.730;2022-08-21T14:25:28;9.43;;;8.52;;
5876;SDS011;2964;42.144;24.730;2022-08-21T14:28:01;10.15;;;8.35;;
5876;SDS011;2964;42.144;24.730;2022-08-21T14:30:31;9.05;;;8.18;;
5876;SDS011;2964;42.144;24.730;2022-08-21T14:32:59;10.20;;;9.40;;
5876;SDS011;2964;42.144;24.730;2022-08-21T14:35:27;9.90;;;8.93;;
5876;SDS011;2964;42.144;24.730;2022-08-21T14:37:54;9.75;;;8.75;;
5876;SDS011;2964;42.144;24.730;2022-08-21T14:40:22;9.50;;;8.77;;
5876;SDS011;2964;42.144;24.730;2022-08-21T14:42:51;9.93;;;8.73;;
5876;SDS011;2964;42.144;24.730;2022-08-21T14:45:19;12.15;;;9.73;;
5876;SDS011;2964;42.144;24.730;2022-08-21T14:47:51;14.43;;;10.73;;
5876;SDS011;2964;42.144;24.730;2022-08-21T14:50:18;10.35;;;9.55;;
5876;SDS011;2964;42.144;24.730;2022-08-21T14:52:45;11.05;;;10.05;;
5876;SDS011;2964;42.144;24.730;2022-08-21T14:55:13;11.63;;;9.43;;
5876;SDS011;2964;42.144;24.730;2022-08-21T14:57:45;9.48;;;8.85;;
5876;SDS011;2964;42.144;24.730;2022-08-21T15:00:16;11.13;;;10.10;;
5876;SDS011;2964;42.144;24.730;2022-08-21T15:02:45;11.32;;;9.68;;